Time;durP1;ratioP1;P1;durP2;ratioP2;P2;SDS_P1;SDS_P2;PMS_P1;PMS_P2;Temp;Humidity;BMP_temperature;BMP_pressure;BME280_temperature;BME280_humidity;BME280_pressure;Samples;Min_cycle;Max_cycle;Signal;HPM_P1;HPM_P2
2022/10/12 00:00:50;;;;;;;1.98;1.33;;;20.30;61.00;;;;;;5110561;27;44786;-57
2022/10/12 00:03:18;;;;;;;1.50;1.40;;;20.20;61.00;;;;;;5110259;27;43423;-57
2022/10/12 00:05:46;;;;;;;1.60;1.30;;;20.30;61.10;;;;;;5107424;27;44006;-58
2022/10/12 00:08:13;;;;;;;1.55;1.40;;;20.20;61.00;;;;;;5108091;27;43401;-57
2022/10/12 00:10:42;;;;;;;1.30;1.20;;;20.20;61.00;;;;;;5107406;27;44981;-58
2022/10/12 00:13:10;;;;;;;1.52;1.15;;;20.20;61.00;;;;;;5109319;27;43970;-57
2022/10/12 00:15:40;;;;;;;1.38;1.27;;;20.20;61.00;;;;;;5108442;27;43978;-57
2022/10/12 00:18:07;;;;;;;1.65;1.40;;;20.20;61.00;;;;;;5107592;27;43542;-57
2022/10/12 00:20:35;;;;;;;2.17;1.30;;;20.20;61.00;;;;;;5106371;27;44729;-57
2022/10/12 00:23:02;;;;;;;1.40;1.30;;;20.20;61.10;;;;;;5120276;27;43928;-57
2022/10/12 00:25:30;;;;;;;2.10;1.35;;;20.20;61.10;;;;;;5120604;27;43479;-57
2022/10/12 00:27:57;;;;;;;1.35;1.25;;;20.20;61.00;;;;;;5107673;27;43627;-57
2022/10/12 00:30:25;;;;;;;1.20;1.10;;;20.20;61.10;;;;;;5106990;27;44050;-57
2022/10/12 00:32:52;;;;;;;1.48;1.33;;;20.10;61.00;;;;;;5107502;27;43432;-57
2022/10/12 00:35:20;;;;;;;1.02;0.93;;;20.10;61.00;;;;;;5107794;27;43436;-57
2022/10/12 00:37:52;;;;;;;1.25;1.15;;;20.10;61.00;;;;;;5107402;27;43525;-57
2022/10/12 00:40:20;;;;;;;1.35;1.23;;;20.10;61.00;;;;;;5106301;27;44992;-57
2022/10/12 00:42:50;;;;;;;1.20;1.10;;;20.10;61.00;;;;;;5118682;27;44139;-58
2022/10/12 00:45:17;;;;;;;1.67;1.20;;;20.10;61.00;;;;;;5116103;27;43454;-58
2022/10/12 00:47:51;;;;;;;1.55;1.25;;;20.10;61.00;;;;;;5083023;27;43960;-58
2022/10/12 00:50:25;;;;;;;0.90;0.90;;;20.10;61.00;;;;;;5102871;27;44971;-58
2022/10/12 00:53:18;;;;;;;1.15;1.05;;;20.10;61.10;;;;;;5103164;27;43787;-57
2022/10/12 00:55:56;;;;;;;1.10;1.00;;;20.10;61.10;;;;;;5102303;27;43413;-57
2022/10/12 00:58:24;;;;;;;2.08;1.30;;;20.00;61.00;;;;;;5100239;27;43458;-57
2022/10/12 01:00:52;;;;;;;1.50;1.10;;;20.00;61.00;;;;;;5101420;27;44727;-57
2022/10/12 01:03:22;;;;;;;1.20;1.05;;;20.00;61.00;;;;;;5102798;27;43423;-58
2022/10/12 01:05:49;;;;;;;1.40;1.30;;;20.00;61.00;;;;;;5099482;27;43471;-57
2022/10/12 01:08:17;;;;;;;0.80;0.80;;;20.00;61.00;;;;;;5102528;27;43418;-57
2022/10/12 01:10:44;;;;;;;1.42;1.25;;;20.00;61.00;;;;;;5102437;27;45303;-57
2022/10/12 01:13:12;;;;;;;1.17;1.13;;;20.00;61.00;;;;;;5103037;27;43973;-57
2022/10/12 01:16:03;;;;;;;1.35;1.10;;;20.00;61.00;;;;;;5101858;27;43462;-57
2022/10/12 01:18:35;;;;;;;0.90;0.90;;;19.90;60.90;;;;;;5055529;27;43520;-57
2022/10/12 01:21:09;;;;;;;1.00;0.85;;;19.90;61.00;;;;;;5102943;27;44071;-57
2022/10/12 01:23:43;;;;;;;1.35;1.20;;;19.90;61.00;;;;;;5101405;27;43992;-57
2022/10/12 01:26:52;;;;;;;1.20;1.02;;;19.90;61.00;;;;;;5099631;27;43399;-57
2022/10/12 01:29:49;;;;;;;1.02;0.82;;;19.90;60.90;;;;;;5101420;27;43592;-58
2022/10/12 01:32:25;;;;;;;0.75;0.75;;;19.90;61.00;;;;;;5100780;27;44094;-58
2022/10/12 01:35:02;;;;;;;0.80;0.80;;;19.90;61.00;;;;;;5102530;27;43541;-57
2022/10/12 01:37:53;;;;;;;0.70;0.70;;;19.80;60.90;;;;;;5101708;27;43445;-57
2022/10/12 01:40:36;;;;;;;0.90;0.88;;;19.90;60.90;;;;;;5058938;27;43525;-57
2022/10/12 01:43:03;;;;;;;1.10;1.00;;;19.80;60.90;;;;;;5101470;27;45062;-57
2022/10/12 01:45:31;;;;;;;0.82;0.80;;;19.80;61.00;;;;;;5103572;27;43502;-57
2022/10/12 01:47:58;;;;;;;1.27;1.10;;;19.80;61.00;;;;;;5105879;27;44040;-57
2022/10/12 01:50:37;;;;;;;0.88;0.88;;;19.80;60.90;;;;;;5106038;27;43491;-57
2022/10/12 01:53:13;;;;;;;0.98;0.90;;;19.80;60.80;;;;;;5106663;27;44752;-57
2022/10/12 01:56:05;;;;;;;0.93;0.80;;;19.80;60.90;;;;;;5104449;27;43713;-56
2022/10/12 01:58:58;;;;;;;0.90;0.70;;;19.80;60.90;;;;;;5112100;27;43457;-57
2022/10/12 02:01:41;;;;;;;0.80;0.80;;;19.80;61.00;;;;;;5110339;27;43645;-57
2022/10/12 02:04:31;;;;;;;0.73;0.70;;;19.70;60.90;;;;;;5111758;27;45006;-57
2022/10/12 02:07:03;;;;;;;0.80;0.80;;;19.70;60.90;;;;;;5110517;27;43585;-57
2022/10/12 02:09:36;;;;;;;0.70;0.70;;;19.70;60.90;;;;;;5111784;27;43462;-57
2022/10/12 02:12:11;;;;;;;0.90;0.90;;;19.70;60.90;;;;;;5109402;27;43518;-57
2022/10/12 02:14:44;;;;;;;0.80;0.80;;;19.70;60.90;;;;;;5109113;27;44722;-57
2022/10/12 02:17:15;;;;;;;0.70;0.70;;;19.70;60.90;;;;;;5113045;27;43989;-57
2022/10/12 02:19:48;;;;;;;0.70;0.70;;;19.70;60.80;;;;;;5117828;27;43386;-57
2022/10/12 02:22:17;;;;;;;0.70;0.70;;;19.70;60.90;;;;;;5109630;27;43545;-57
2022/10/12 02:24:48;;;;;;;0.60;0.60;;;19.70;60.90;;;;;;5109849;27;44983;-57
2022/10/12 02:27:19;;;;;;;0.63;0.60;;;19.70;60.90;;;;;;5110710;27;43862;-57
2022/10/12 02:29:47;;;;;;;;;;;19.70;60.90;;;;;;5109409;27;43432;-58
2022/10/12 02:32:28;;;;;;;0.55;0.55;;;19.60;60.80;;;;;;5108875;27;43498;-57
2022/10/12 02:35:04;;;;;;;0.70;0.70;;;19.60;60.80;;;;;;5109824;27;45007;-58
2022/10/12 02:37:43;;;;;;;0.55;0.55;;;19.60;60.80;;;;;;5108845;27;44331;-58
2022/10/12 02:40:35;;;;;;;0.88;0.70;;;19.60;60.90;;;;;;5108345;27;43430;-57
2022/10/12 02:43:36;;;;;;;0.63;0.63;;;19.60;60.80;;;;;;5118075;27;43565;-57
2022/10/12 02:46:06;;;;;;;0.40;0.40;;;19.60;60.90;;;;;;5091202;27;45011;-57
2022/10/12 02:48:37;;;;;;;0.93;0.55;;;19.60;60.80;;;;;;5103896;27;44155;-57
2022/10/12 02:51:06;;;;;;;0.70;0.55;;;19.60;60.90;;;;;;5105293;27;43409;-57
2022/10/12 02:53:34;;;;;;;0.60;0.60;;;19.60;60.80;;;;;;5104003;27;43608;-57
2022/10/12 02:56:13;;;;;;;0.50;0.50;;;19.60;60.80;;;;;;5103939;27;43872;-58
2022/10/12 02:58:46;;;;;;;0.70;0.70;;;19.60;60.80;;;;;;5097601;27;43555;-57
2022/10/12 03:01:15;;;;;;;0.52;0.40;;;19.60;60.80;;;;;;5104438;27;43409;-57
2022/10/12 03:03:44;;;;;;;0.50;0.50;;;19.50;60.80;;;;;;5103332;27;43536;-57
2022/10/12 03:06:12;;;;;;;0.50;0.50;;;19.50;60.80;;;;;;5101287;27;44922;-58
2022/10/12 03:08:39;;;;;;;0.50;0.50;;;19.50;60.70;;;;;;5103309;27;43676;-57
2022/10/12 03:11:10;;;;;;;0.40;0.40;;;19.50;60.70;;;;;;5104457;27;43495;-58
2022/10/12 03:13:38;;;;;;;0.60;0.60;;;19.50;60.80;;;;;;5104397;27;44012;-58
2022/10/12 03:16:08;;;;;;;0.47;0.47;;;19.50;60.70;;;;;;5103868;27;43773;-57
2022/10/12 03:18:37;;;;;;;0.40;0.40;;;19.50;60.70;;;;;;5092804;27;43501;-58
2022/10/12 03:21:04;;;;;;;0.40;0.40;;;19.50;60.70;;;;;;5104688;27;43340;-58
2022/10/12 03:23:32;;;;;;;0.50;0.50;;;19.50;60.80;;;;;;5103582;27;43600;-58
2022/10/12 03:26:00;;;;;;;0.30;0.30;;;19.50;60.70;;;;;;5104435;27;44994;-57
2022/10/12 03:28:28;;;;;;;0.50;0.50;;;19.40;60.70;;;;;;5103011;27;43418;-57
2022/10/12 03:30:56;;;;;;;0.57;0.50;;;19.50;60.80;;;;;;5104380;27;43445;-58
2022/10/12 03:33:23;;;;;;;0.50;0.50;;;19.40;60.70;;;;;;5104463;27;43676;-57
2022/10/12 03:35:51;;;;;;;0.50;0.50;;;19.40;60.70;;;;;;5102928;27;44984;-58
2022/10/12 03:38:19;;;;;;;0.95;0.70;;;19.40;60.70;;;;;;5104158;27;43344;-58
2022/10/12 03:40:46;;;;;;;0.63;0.63;;;19.40;60.70;;;;;;5104009;27;43435;-58
2022/10/12 03:43:14;;;;;;;0.57;0.57;;;19.40;60.70;;;;;;5102900;27;43600;-58
2022/10/12 03:45:41;;;;;;;0.70;0.70;;;19.40;60.70;;;;;;5106876;27;45030;-57
2022/10/12 03:48:09;;;;;;;0.50;0.40;;;19.40;60.70;;;;;;5108111;27;43707;-57
2022/10/12 03:50:37;;;;;;;0.55;0.55;;;19.40;60.70;;;;;;5106797;27;43464;-57
2022/10/12 03:53:05;;;;;;;0.43;0.43;;;19.40;60.70;;;;;;5108395;27;43618;-57
2022/10/12 03:55:33;;;;;;;0.52;0.52;;;19.40;60.70;;;;;;5115254;27;44688;-58
2022/10/12 03:58:00;;;;;;;0.40;0.40;;;19.40;60.70;;;;;;5109728;27;43981;-57
2022/10/12 04:00:28;;;;;;;0.43;0.43;;;19.30;60.70;;;;;;5113018;27;43486;-57
2022/10/12 04:02:55;;;;;;;0.30;0.30;;;19.30;60.70;;;;;;5109538;27;43661;-58
2022/10/12 04:05:22;;;;;;;0.50;0.50;;;19.30;60.70;;;;;;5107341;27;45047;-58
2022/10/12 04:07:50;;;;;;;0.52;0.40;;;19.30;60.70;;;;;;5116809;27;43390;-58
2022/10/12 04:10:17;;;;;;;0.50;0.50;;;19.30;60.70;;;;;;5089605;27;43439;-58
2022/10/12 04:12:45;;;;;;;0.40;0.40;;;19.30;60.70;;;;;;5106845;27;43558;-57
2022/10/12 04:15:13;;;;;;;0.63;0.63;;;19.30;60.70;;;;;;5111333;27;45348;-58
2022/10/12 04:17:40;;;;;;;0.55;0.55;;;19.30;60.70;;;;;;5119230;27;43718;-58
2022/10/12 04:20:10;;;;;;;0.40;0.40;;;19.30;60.70;;;;;;5112799;27;43504;-58
2022/10/12 04:22:38;;;;;;;0.50;0.50;;;19.20;60.60;;;;;;5106492;27;43602;-58
2022/10/12 04:25:06;;;;;;;1.65;0.63;;;19.20;60.70;;;;;;5107385;27;45298;-58
2022/10/12 04:27:33;;;;;;;0.30;0.30;;;19.20;60.70;;;;;;5107024;27;43831;-57
2022/10/12 04:30:01;;;;;;;0.47;0.47;;;19.20;60.70;;;;;;5107287;27;43480;-58
2022/10/12 04:32:29;;;;;;;0.40;0.40;;;19.20;60.70;;;;;;5108178;27;43504;-57
2022/10/12 04:34:57;;;;;;;0.38;0.38;;;19.20;60.70;;;;;;5110483;27;44841;-57
2022/10/12 04:37:26;;;;;;;0.30;0.30;;;19.20;60.60;;;;;;5107115;27;44081;-57
2022/10/12 04:39:54;;;;;;;0.40;0.40;;;19.20;60.70;;;;;;5106772;27;43398;-58
2022/10/12 04:42:21;;;;;;;0.40;0.40;;;19.20;60.60;;;;;;5115627;27;43814;-57
2022/10/12 04:44:48;;;;;;;0.40;0.40;;;19.20;60.70;;;;;;5109832;27;44946;-57
2022/10/12 04:47:16;;;;;;;0.43;0.43;;;19.20;60.70;;;;;;5106065;27;43469;-57
2022/10/12 04:49:43;;;;;;;0.32;0.32;;;19.20;60.70;;;;;;5107064;27;43386;-57
2022/10/12 04:52:11;;;;;;;0.35;0.35;;;19.10;60.60;;;;;;5107916;27;43601;-58
2022/10/12 04:54:39;;;;;;;0.55;0.55;;;19.10;60.70;;;;;;5109558;27;44960;-57
2022/10/12 04:57:06;;;;;;;0.73;0.50;;;19.10;60.70;;;;;;5119324;27;44007;-58
2022/10/12 04:59:33;;;;;;;0.38;0.38;;;19.10;60.60;;;;;;5105571;27;43385;-57
2022/10/12 05:02:01;;;;;;;0.47;0.47;;;19.10;60.60;;;;;;5107582;27;43446;-57
2022/10/12 05:04:28;;;;;;;0.40;0.40;;;19.10;60.50;;;;;;5115879;27;45009;-57
2022/10/12 05:06:56;;;;;;;0.43;0.43;;;19.10;60.60;;;;;;5110784;27;43533;-57
2022/10/12 05:09:23;;;;;;;0.52;0.40;;;19.10;60.70;;;;;;5113682;27;43414;-58
2022/10/12 05:11:50;;;;;;;0.95;0.60;;;19.10;60.60;;;;;;5092044;27;43592;-57
2022/10/12 05:14:18;;;;;;;0.50;0.50;;;19.10;60.70;;;;;;5111930;27;44784;-57
2022/10/12 05:16:46;;;;;;;0.47;0.43;;;19.10;60.70;;;;;;5112422;27;43918;-57
2022/10/12 05:19:14;;;;;;;0.65;0.40;;;19.00;60.60;;;;;;5122171;27;43408;-57
2022/10/12 05:21:41;;;;;;;0.52;0.50;;;19.10;60.60;;;;;;5110294;27;43425;-58
2022/10/12 05:24:10;;;;;;;0.47;0.47;;;19.10;60.70;;;;;;5113225;27;44049;-57
2022/10/12 05:26:37;;;;;;;0.30;0.28;;;19.00;60.50;;;;;;5113891;27;44027;-57
2022/10/12 05:29:04;;;;;;;0.40;0.40;;;19.00;60.60;;;;;;5122381;27;43338;-57
2022/10/12 05:31:32;;;;;;;0.57;0.50;;;19.00;60.50;;;;;;5111021;27;43555;-57
2022/10/12 05:33:59;;;;;;;0.40;0.40;;;19.00;60.60;;;;;;5116161;27;44811;-58
2022/10/12 05:36:27;;;;;;;0.77;0.50;;;19.00;60.50;;;;;;5117997;27;43425;-57
2022/10/12 05:38:54;;;;;;;0.60;0.60;;;19.00;60.50;;;;;;5119774;27;43479;-57
2022/10/12 05:41:22;;;;;;;0.30;0.30;;;19.00;60.60;;;;;;5114649;27;43552;-57
2022/10/12 05:43:49;;;;;;;0.50;0.50;;;19.00;60.60;;;;;;5120188;27;43893;-57
2022/10/12 05:46:17;;;;;;;0.57;0.57;;;19.00;60.60;;;;;;5115716;27;43829;-57
2022/10/12 05:48:44;;;;;;;0.30;0.30;;;19.00;60.80;;;;;;5119004;27;43401;-57
2022/10/12 05:51:11;;;;;;;0.40;0.40;;;18.90;60.70;;;;;;5115452;27;43492;-57
2022/10/12 05:53:39;;;;;;;0.50;0.50;;;19.00;60.80;;;;;;5114728;27;44768;-57
2022/10/12 05:56:06;;;;;;;0.50;0.50;;;18.90;60.70;;;;;;5115377;27;43999;-57
2022/10/12 05:58:34;;;;;;;0.50;0.50;;;18.90;60.70;;;;;;5117713;27;43435;-57
2022/10/12 06:01:10;;;;;;;0.50;0.50;;;18.90;60.90;;;;;;5114653;27;43567;-57
2022/10/12 06:03:37;;;;;;;0.47;0.47;;;19.00;60.90;;;;;;5115477;27;44355;-57
2022/10/12 06:06:05;;;;;;;0.95;0.40;;;18.90;60.90;;;;;;5117082;27;43996;-57
2022/10/12 06:08:34;;;;;;;1.02;0.38;;;19.00;61.00;;;;;;5117180;27;43439;-57
2022/10/12 06:11:02;;;;;;;0.50;0.50;;;19.00;60.90;;;;;;5116278;27;43509;-57
2022/10/12 06:13:29;;;;;;;0.45;0.45;;;19.00;60.90;;;;;;5112900;27;44050;-57
2022/10/12 06:15:57;;;;;;;0.65;0.50;;;19.00;60.90;;;;;;5119365;27;44065;-56
2022/10/12 06:18:24;;;;;;;0.50;0.50;;;19.00;60.90;;;;;;5124756;27;43482;-57
2022/10/12 06:20:53;;;;;;;0.40;0.40;;;19.00;60.90;;;;;;5121838;27;43577;-57
2022/10/12 06:23:41;;;;;;;0.50;0.50;;;19.00;60.90;;;;;;5114063;27;44064;-57
2022/10/12 06:26:08;;;;;;;0.47;0.47;;;19.00;61.60;;;;;;5115622;27;43730;-57
2022/10/12 06:28:35;;;;;;;0.57;0.57;;;19.00;60.90;;;;;;5112599;27;43402;-57
2022/10/12 06:31:03;;;;;;;0.50;0.50;;;19.00;60.90;;;;;;5114378;27;43683;-57
2022/10/12 06:33:31;;;;;;;0.43;0.43;;;19.00;60.90;;;;;;5118601;27;44986;-58
2022/10/12 06:35:58;;;;;;;0.50;0.50;;;19.00;60.90;;;;;;5120892;27;43950;-57
2022/10/12 06:38:25;;;;;;;1.20;0.55;;;19.00;60.80;;;;;;5124062;27;43401;-57
2022/10/12 06:40:53;;;;;;;0.40;0.40;;;19.10;60.80;;;;;;5112791;27;43456;-57
2022/10/12 06:43:23;;;;;;;0.45;0.45;;;19.10;60.80;;;;;;5114367;27;44043;-57
2022/10/12 06:45:51;;;;;;;0.60;0.60;;;19.10;60.80;;;;;;5122995;27;43461;-57
2022/10/12 06:48:18;;;;;;;0.70;0.40;;;19.10;60.80;;;;;;5119124;27;43486;-57
2022/10/12 06:50:46;;;;;;;0.47;0.47;;;19.10;60.80;;;;;;5113173;27;43653;-58
2022/10/12 06:53:13;;;;;;;0.40;0.40;;;19.10;60.80;;;;;;5118273;27;44799;-58
2022/10/12 06:55:41;;;;;;;0.50;0.50;;;19.10;60.70;;;;;;5115340;27;44095;-57
2022/10/12 06:58:08;;;;;;;0.57;0.57;;;19.10;60.80;;;;;;5111244;27;43466;-57
2022/10/12 07:00:36;;;;;;;0.52;0.52;;;19.20;60.80;;;;;;5112961;27;43459;-57
2022/10/12 07:03:04;;;;;;;0.50;0.50;;;19.20;60.80;;;;;;5115593;27;43883;-57
2022/10/12 07:05:31;;;;;;;0.60;0.60;;;19.20;60.90;;;;;;5119079;27;43466;-57
2022/10/12 07:07:58;;;;;;;0.60;0.60;;;19.20;60.90;;;;;;5112192;27;44067;-57
2022/10/12 07:10:27;;;;;;;1.63;0.70;;;19.20;60.90;;;;;;5096083;27;43589;-57
2022/10/12 07:12:54;;;;;;;0.55;0.55;;;19.20;60.90;;;;;;5117001;27;44007;-57
2022/10/12 07:15:21;;;;;;;1.75;0.55;;;19.20;60.90;;;;;;5122562;27;43973;-58
2022/10/12 07:17:49;;;;;;;0.63;0.60;;;19.20;60.80;;;;;;5094133;27;43531;-57
2022/10/12 07:20:16;;;;;;;0.77;0.60;;;19.20;60.80;;;;;;5113822;27;43501;-57
2022/10/12 07:22:44;;;;;;;1.15;0.57;;;19.20;60.70;;;;;;5115622;27;44996;-57
2022/10/12 07:25:11;;;;;;;2.47;0.52;;;19.30;60.80;;;;;;5124254;27;43843;-57
2022/10/12 07:27:38;;;;;;;1.27;0.60;;;19.30;60.70;;;;;;5112716;27;43435;-57
2022/10/12 07:30:07;;;;;;;0.70;0.70;;;19.30;60.70;;;;;;5114786;27;43436;-58
2022/10/12 07:32:35;;;;;;;1.90;0.80;;;19.30;60.80;;;;;;5118197;27;43763;-57
2022/10/12 07:35:02;;;;;;;0.57;0.52;;;19.30;60.70;;;;;;5114487;27;43983;-58
2022/10/12 07:37:30;;;;;;;1.17;0.70;;;19.30;60.80;;;;;;5111714;27;43521;-57
2022/10/12 07:39:57;;;;;;;2.50;2.40;;;19.30;60.90;;;;;;5115224;27;43602;-57
2022/10/12 07:42:25;;;;;;;2.88;2.30;;;19.30;61.70;;;;;;5120732;27;44944;-57
2022/10/12 07:44:52;;;;;;;2.60;2.40;;;19.30;61.00;;;;;;5120826;27;45064;-58
2022/10/12 07:47:19;;;;;;;3.83;2.28;;;19.40;61.10;;;;;;5114141;27;43438;-58
2022/10/12 07:49:48;;;;;;;2.70;2.47;;;19.40;61.10;;;;;;5114872;27;43492;-57
2022/10/12 07:52:16;;;;;;;4.70;4.10;;;19.40;61.20;;;;;;5120458;27;44832;-57
2022/10/12 07:54:43;;;;;;;7.22;4.40;;;19.50;61.30;;;;;;5114787;27;43718;-57
2022/10/12 07:57:10;;;;;;;4.53;3.88;;;19.50;61.60;;;;;;5108128;27;43384;-57
2022/10/12 07:59:38;;;;;;;4.22;3.25;;;19.60;61.40;;;;;;5116511;27;43627;-57
2022/10/12 08:02:05;;;;;;;3.65;3.10;;;19.60;61.20;;;;;;5122136;27;44051;-57
2022/10/12 08:04:33;;;;;;;4.15;3.13;;;19.70;61.10;;;;;;5120950;27;44001;-57
2022/10/12 08:07:00;;;;;;;3.05;2.83;;;19.80;60.90;;;;;;5124193;27;43443;-57
2022/10/12 08:09:28;;;;;;;2.88;2.50;;;19.80;60.80;;;;;;5118970;27;43471;-58
2022/10/12 08:11:55;;;;;;;2.65;2.45;;;19.90;60.70;;;;;;5117232;27;43939;-57
2022/10/12 08:14:22;;;;;;;2.20;2.10;;;20.00;60.60;;;;;;5117336;27;43722;-58
2022/10/12 08:16:50;;;;;;;2.47;2.25;;;20.00;60.50;;;;;;5110753;27;43474;-58
2022/10/12 08:19:17;;;;;;;3.28;2.42;;;20.10;60.50;;;;;;5118714;27;43517;-58
2022/10/12 08:21:45;;;;;;;2.42;2.20;;;20.10;60.40;;;;;;5118505;27;45010;-57
2022/10/12 08:24:13;;;;;;;3.53;2.38;;;20.20;60.30;;;;;;5109025;27;44188;-57
2022/10/12 08:26:40;;;;;;;2.58;2.20;;;20.20;60.30;;;;;;5117577;27;43412;-58
2022/10/12 08:29:09;;;;;;;2.40;2.20;;;20.30;60.30;;;;;;5119497;27;43495;-58
2022/10/12 08:31:36;;;;;;;2.70;2.40;;;20.30;60.20;;;;;;5106235;27;44996;-58
2022/10/12 08:34:04;;;;;;;2.17;2.00;;;20.40;60.20;;;;;;5112073;27;43499;-58
2022/10/12 08:36:32;;;;;;;2.33;1.90;;;20.40;60.10;;;;;;5118611;27;43454;-57
2022/10/12 08:39:00;;;;;;;3.70;1.90;;;20.50;60.10;;;;;;5119401;27;43518;-57
2022/10/12 08:42:05;;;;;;;2.88;1.83;;;20.50;60.10;;;;;;5107257;27;44975;-58
2022/10/12 08:45:00;;;;;;;3.00;2.08;;;20.50;60.00;;;;;;5115284;27;43877;-58
2022/10/12 08:48:05;;;;;;;3.20;1.98;;;20.50;60.00;;;;;;5117841;27;43530;-58
2022/10/12 08:50:36;;;;;;;2.10;1.90;;;20.50;60.10;;;;;;5083122;27;43705;-58
2022/10/12 08:53:24;;;;;;;1.95;1.75;;;20.60;60.10;;;;;;5115214;27;44068;-57
2022/10/12 08:55:52;;;;;;;2.08;1.90;;;20.60;60.10;;;;;;5118168;27;43824;-57
2022/10/12 08:58:24;;;;;;;3.45;2.05;;;20.60;60.10;;;;;;5116396;27;43506;-57
2022/10/12 09:01:09;;;;;;;3.53;1.90;;;20.60;60.10;;;;;;5103233;27;43537;-58
2022/10/12 09:04:15;;;;;;;3.22;1.83;;;20.70;60.10;;;;;;5118659;27;43825;-57
2022/10/12 09:07:18;;;;;;;4.18;1.70;;;20.70;60.20;;;;;;5115574;27;43960;-57
2022/10/12 09:09:58;;;;;;;2.60;1.70;;;20.70;60.30;;;;;;5089408;27;43596;-57
2022/10/12 09:12:42;;;;;;;1.77;1.60;;;20.80;60.40;;;;;;5115632;27;43519;-57
2022/10/12 09:15:20;;;;;;;1.85;1.48;;;20.90;60.30;;;;;;5124001;27;44615;-57
2022/10/12 09:17:53;;;;;;;3.78;1.65;;;21.00;60.10;;;;;;5117890;27;43433;-57
2022/10/12 09:20:39;;;;;;;2.65;1.83;;;21.10;60.00;;;;;;5116214;27;43391;-58
2022/10/12 09:23:24;;;;;;;3.05;1.90;;;21.30;59.90;;;;;;5119020;27;43506;-58
2022/10/12 09:26:02;;;;;;;1.60;1.50;;;21.50;59.80;;;;;;5125065;27;44987;-58
2022/10/12 09:28:41;;;;;;;1.80;1.55;;;21.60;59.60;;;;;;5106080;27;44033;-58
2022/10/12 09:31:23;;;;;;;1.50;1.40;;;21.80;59.40;;;;;;5118020;27;43490;-58
2022/10/12 09:33:55;;;;;;;2.03;1.40;;;22.00;59.10;;;;;;5119914;27;43622;-58
2022/10/12 09:36:27;;;;;;;1.80;1.40;;;22.10;58.90;;;;;;5109130;27;45008;-58
2022/10/12 09:38:56;;;;;;;2.08;1.50;;;22.20;58.70;;;;;;5112223;27;43882;-58
2022/10/12 09:41:28;;;;;;;1.73;1.35;;;22.30;58.50;;;;;;5120078;27;43406;-57
2022/10/12 09:43:59;;;;;;;2.05;1.45;;;22.40;58.50;;;;;;5121347;27;43640;-57
2022/10/12 09:46:44;;;;;;;2.60;1.67;;;22.50;58.20;;;;;;5109147;27;44827;-58
2022/10/12 09:49:12;;;;;;;2.53;1.40;;;22.60;58.00;;;;;;5116937;27;43997;-58
2022/10/12 09:51:40;;;;;;;3.20;1.50;;;22.70;58.00;;;;;;5120784;27;43460;-57
2022/10/12 09:54:17;;;;;;;2.55;1.50;;;22.80;57.90;;;;;;5123988;27;43650;-57
2022/10/12 09:56:50;;;;;;;2.22;1.42;;;22.90;57.60;;;;;;5106291;27;44792;-58
2022/10/12 09:59:24;;;;;;;2.72;1.58;;;23.10;57.60;;;;;;5121629;27;44892;-58
2022/10/12 10:02:11;;;;;;;3.88;1.60;;;23.20;57.30;;;;;;5117023;27;43439;-58
2022/10/12 10:04:40;;;;;;;2.22;1.50;;;23.40;57.10;;;;;;5101037;27;43538;-59
2022/10/12 10:07:32;;;;;;;1.75;1.40;;;23.50;57.00;;;;;;5122935;27;44083;-58
2022/10/12 10:10:11;;;;;;;1.60;1.40;;;23.70;56.70;;;;;;5119676;27;43553;-58
2022/10/12 10:12:57;;;;;;;1.83;1.30;;;23.80;56.60;;;;;;5119146;27;43429;-58
2022/10/12 10:15:26;;;;;;;1.88;1.48;;;23.90;56.40;;;;;;5120318;27;43404;-57
2022/10/12 10:17:59;;;;;;;1.63;1.40;;;23.90;56.40;;;;;;5118798;27;43810;-57
2022/10/12 10:20:42;;;;;;;2.08;1.40;;;24.00;56.10;;;;;;5115948;27;43545;-58
2022/10/12 10:23:38;;;;;;;2.85;1.70;;;24.10;56.30;;;;;;5121671;27;43790;-58
2022/10/12 10:26:13;;;;;;;1.60;1.30;;;24.10;56.00;;;;;;5118314;27;43580;-58
2022/10/12 10:28:43;;;;;;;1.52;1.40;;;24.20;56.10;;;;;;5121880;27;43804;-58
2022/10/12 10:31:15;;;;;;;2.88;1.40;;;24.20;56.00;;;;;;5117858;27;43430;-58
2022/10/12 10:34:17;;;;;;;3.45;1.50;;;24.20;55.90;;;;;;5107890;27;43369;-58
2022/10/12 10:37:06;;;;;;;1.60;1.40;;;24.10;55.60;;;;;;5118478;27;43473;-58
2022/10/12 10:39:54;;;;;;;2.33;1.30;;;24.10;55.70;;;;;;5105306;27;43773;-58
2022/10/12 10:42:40;;;;;;;2.13;1.42;;;24.10;56.00;;;;;;5112589;27;43335;-57
2022/10/12 10:45:30;;;;;;;2.58;1.20;;;24.10;56.20;;;;;;5111523;27;43345;-58
2022/10/12 10:48:20;;;;;;;1.75;1.20;;;24.10;56.20;;;;;;5121687;27;43464;-57
2022/10/12 10:51:00;;;;;;;1.50;1.40;;;24.10;56.30;;;;;;5110334;27;43981;-58
2022/10/12 10:53:43;;;;;;;2.27;1.23;;;24.10;56.40;;;;;;5111160;27;44017;-59
2022/10/12 10:56:22;;;;;;;1.25;1.05;;;24.00;56.50;;;;;;5123724;27;43411;-57
2022/10/12 10:59:03;;;;;;;1.40;1.15;;;24.00;56.50;;;;;;5120940;27;43399;-58
2022/10/12 11:01:58;;;;;;;1.38;1.10;;;24.00;56.50;;;;;;5108600;27;43948;-58
2022/10/12 11:04:34;;;;;;;1.77;1.30;;;24.00;56.50;;;;;;5115175;27;43961;-57
2022/10/12 11:07:27;;;;;;;2.88;1.35;;;24.00;56.50;;;;;;5118072;27;43482;-57
2022/10/12 11:09:58;;;;;;;1.77;1.23;;;24.00;56.50;;;;;;5104399;27;43483;-57
2022/10/12 11:12:48;;;;;;;1.55;1.13;;;24.00;56.80;;;;;;5114166;27;43779;-58
2022/10/12 11:15:45;;;;;;;1.23;1.00;;;24.00;56.70;;;;;;5115517;27;43969;-58
2022/10/12 11:18:32;;;;;;;1.33;0.90;;;24.00;56.90;;;;;;5105722;27;43585;-57
2022/10/12 11:21:02;;;;;;;1.30;1.20;;;24.00;56.90;;;;;;5111657;27;43394;-58
2022/10/12 11:24:01;;;;;;;2.53;1.30;;;23.90;56.80;;;;;;5120469;27;44629;-57
2022/10/12 11:26:34;;;;;;;1.88;1.20;;;23.90;56.90;;;;;;5121999;27;43792;-57
2022/10/12 11:29:03;;;;;;;1.50;1.10;;;23.90;56.90;;;;;;5112029;27;43506;-57
2022/10/12 11:31:38;;;;;;;1.25;1.10;;;23.90;56.90;;;;;;5115555;27;43474;-57
2022/10/12 11:34:12;;;;;;;1.73;0.90;;;23.90;56.90;;;;;;5111098;27;43816;-57
2022/10/12 11:36:43;;;;;;;2.05;1.10;;;23.90;56.90;;;;;;5108098;27;43411;-57
2022/10/12 11:39:31;;;;;;;;;;;23.80;56.90;;;;;;5097770;27;43485;-57
2022/10/12 11:42:01;;;;;;;1.92;1.10;;;23.80;57.00;;;;;;5099399;27;43486;-57
2022/10/12 11:44:48;;;;;;;2.00;1.50;;;23.80;57.10;;;;;;5120660;27;44961;-57
2022/10/12 11:47:46;;;;;;;2.58;1.35;;;23.80;57.10;;;;;;5113062;27;43395;-59
2022/10/12 11:50:36;;;;;;;1.90;1.20;;;23.80;57.10;;;;;;5109218;27;43957;-57
2022/10/12 11:53:15;;;;;;;1.60;1.48;;;23.80;57.20;;;;;;5123226;27;43510;-58
2022/10/12 11:55:57;;;;;;;2.47;1.40;;;23.80;57.20;;;;;;5112103;27;44732;-57
2022/10/12 11:58:30;;;;;;;1.73;1.27;;;23.80;57.30;;;;;;5116731;27;43502;-58
2022/10/12 12:01:31;;;;;;;1.67;1.30;;;23.70;57.20;;;;;;5117094;27;43959;-58
2022/10/12 12:04:22;;;;;;;1.95;1.52;;;23.80;57.40;;;;;;5108480;27;43352;-57
2022/10/12 12:07:39;;;;;;;1.17;1.08;;;23.70;57.30;;;;;;5114523;27;44727;-57
2022/10/12 12:10:34;;;;;;;2.17;1.67;;;23.70;57.40;;;;;;5114705;27;43425;-57
2022/10/12 12:13:14;;;;;;;2.15;1.42;;;23.70;57.50;;;;;;5109616;27;43553;-57
2022/10/12 12:16:02;;;;;;;1.33;1.17;;;23.70;57.60;;;;;;5111899;27;43546;-57
2022/10/12 12:18:34;;;;;;;1.60;1.30;;;23.80;57.70;;;;;;5111580;27;44154;-57
2022/10/12 12:21:07;;;;;;;2.05;1.42;;;23.80;57.70;;;;;;5113725;27;43509;-57
2022/10/12 12:23:54;;;;;;;2.67;1.45;;;23.80;57.60;;;;;;5115037;27;43408;-57
2022/10/12 12:26:28;;;;;;;1.65;1.45;;;23.80;57.70;;;;;;5111689;27;43466;-57
2022/10/12 12:29:21;;;;;;;1.88;1.33;;;23.80;57.80;;;;;;5114044;27;44821;-57
2022/10/12 12:31:59;;;;;;;2.10;1.30;;;23.80;57.80;;;;;;5114942;27;43471;-57
2022/10/12 12:34:27;;;;;;;1.77;1.50;;;23.80;57.80;;;;;;5114713;27;43401;-57
2022/10/12 12:36:56;;;;;;;1.67;1.42;;;23.80;57.80;;;;;;5121026;27;43591;-57
2022/10/12 12:39:31;;;;;;;1.92;1.30;;;23.80;57.90;;;;;;5119916;27;45142;-57
2022/10/12 12:42:05;;;;;;;2.42;1.45;;;23.80;57.90;;;;;;5118624;27;43801;-57
2022/10/12 12:44:42;;;;;;;1.92;1.52;;;23.80;58.00;;;;;;5113638;27;43459;-57
2022/10/12 12:47:09;;;;;;;1.40;1.30;;;23.80;58.00;;;;;;5117305;27;43541;-57
2022/10/12 12:50:18;;;;;;;4.03;1.63;;;23.80;58.00;;;;;;5119683;27;45003;-57
2022/10/12 12:52:46;;;;;;;2.38;1.60;;;23.80;58.00;;;;;;5113163;27;43953;-57
2022/10/12 12:55:13;;;;;;;1.80;1.58;;;23.80;58.00;;;;;;5115203;27;43423;-58
2022/10/12 12:58:16;;;;;;;1.40;1.20;;;23.80;58.00;;;;;;5111800;27;43430;-57
2022/10/12 13:01:02;;;;;;;1.45;1.35;;;23.80;58.00;;;;;;5110636;27;44913;-57
2022/10/12 13:03:32;;;;;;;1.70;1.42;;;23.80;58.00;;;;;;5114137;27;43427;-57
2022/10/12 13:06:20;;;;;;;1.57;1.33;;;23.90;58.10;;;;;;5112032;27;43552;-57
2022/10/12 13:09:00;;;;;;;1.83;1.48;;;23.90;58.20;;;;;;5114968;27;43541;-57
2022/10/12 13:11:33;;;;;;;1.52;1.23;;;23.90;58.00;;;;;;5111384;27;45022;-57
2022/10/12 13:14:12;;;;;;;2.03;1.52;;;23.90;58.10;;;;;;5115924;27;43923;-57
2022/10/12 13:17:04;;;;;;;1.63;1.50;;;23.90;58.30;;;;;;5117259;27;43471;-57
2022/10/12 13:19:54;;;;;;;2.85;1.42;;;23.90;58.10;;;;;;5116338;27;43483;-57
2022/10/12 13:22:33;;;;;;;1.92;1.30;;;23.90;58.20;;;;;;5116600;27;45080;-57